createdAt,value
2023-03-29T00:06:47.769Z,37.89
2023-03-29T00:16:49.373Z,38.01
2023-03-29T00:26:50.989Z,38.02
2023-03-29T00:36:52.979Z,38.15
2023-03-29T00:46:54.631Z,38.21
2023-03-29T00:56:56.666Z,38.23
2023-03-29T01:07:03.170Z,38.23
2023-03-29T01:17:04.901Z,38.22
2023-03-29T01:27:13.842Z,38.39
2023-03-29T01:37:36.207Z,38.52
2023-03-29T01:47:50.272Z,38.49
2023-03-29T01:57:52.079Z,38.66
2023-03-29T02:07:53.652Z,38.41
2023-03-29T02:17:56.936Z,38.20
2023-03-29T02:27:58.461Z,37.73
2023-03-29T02:38:01.490Z,37.51
2023-03-29T02:48:05.115Z,37.41
2023-03-29T02:58:09.627Z,37.29
2023-03-29T03:08:11.452Z,37.13
2023-03-29T03:18:12.967Z,37.12
2023-03-29T03:28:14.411Z,37.21
2023-03-29T03:38:16.476Z,37.25
2023-03-29T03:48:18.389Z,37.45
2023-03-29T03:58:20.048Z,37.78
2023-03-29T04:08:22.375Z,37.72
2023-03-29T04:18:23.937Z,37.39
2023-03-29T04:28:25.397Z,37.22
2023-03-29T04:38:26.781Z,37.15
2023-03-29T04:48:30.324Z,36.88
2023-03-29T04:58:32.683Z,36.96
2023-03-29T05:08:35.156Z,36.97
2023-03-29T05:18:36.834Z,37.12
2023-03-29T05:28:39.513Z,37.33
2023-03-29T05:38:41.533Z,37.51
2023-03-29T05:48:42.910Z,37.44
2023-03-29T05:58:45.787Z,37.37
2023-03-29T06:08:47.669Z,37.27
2023-03-29T06:18:49.210Z,37.17
2023-03-29T06:28:52.187Z,37.50
2023-03-29T06:38:53.938Z,37.60
2023-03-29T06:48:55.601Z,37.60
2023-03-29T06:58:57.073Z,37.42
2023-03-29T07:09:01.786Z,37.41
2023-03-29T07:19:04.133Z,37.27
2023-03-29T07:29:06.394Z,37.41
2023-03-29T07:39:09.070Z,37.46
2023-03-29T07:49:10.477Z,37.42
2023-03-29T07:59:11.879Z,37.46
2023-03-29T08:09:13.291Z,37.29
2023-03-29T08:19:14.722Z,37.24
2023-03-29T08:29:16.136Z,37.29
2023-03-29T08:39:19.549Z,37.29
2023-03-29T08:49:21.340Z,37.17
2023-03-29T08:59:30.373Z,37.27
2023-03-29T09:09:32.790Z,37.36
2023-03-29T09:19:46.448Z,37.18
2023-03-29T09:29:53.327Z,37.09
2023-03-29T09:39:56.797Z,37.09
2023-03-29T09:50:32.018Z,37.22
2023-03-29T10:00:33.893Z,37.08
2023-03-29T10:10:35.537Z,37.13
2023-03-29T10:20:37.513Z,37.21
2023-03-29T10:30:39.010Z,37.10
2023-03-29T10:40:53.200Z,37.11
2023-03-29T10:50:57.339Z,37.08
2023-03-29T11:00:58.765Z,36.87
2023-03-29T11:11:24.686Z,36.73
2023-03-29T11:21:38.231Z,36.58
2023-03-29T11:31:55.005Z,36.44
2023-03-29T11:42:02.112Z,36.68
2023-03-29T11:52:10.290Z,36.54
2023-03-29T12:02:33.616Z,36.43
2023-03-29T12:13:00.984Z,36.65
2023-03-29T12:23:02.545Z,36.66
2023-03-29T12:33:10.468Z,36.60
2023-03-29T12:43:44.109Z,36.62
2023-03-29T12:53:47.316Z,36.66
2023-03-29T13:03:55.898Z,36.70
2023-03-29T13:13:57.330Z,36.78
2023-03-29T13:24:23.950Z,36.92
2023-03-29T13:34:37.575Z,37.21
2023-03-29T13:44:44.217Z,37.05
2023-03-29T13:55:06.067Z,37.12
2023-03-29T14:05:09.685Z,37.30
2023-03-29T14:25:22.706Z,37.12
2023-03-29T14:35:29.643Z,37.17
2023-03-29T14:45:32.031Z,37.08
2023-03-29T14:55:33.482Z,37.13
2023-03-29T15:05:34.726Z,37.41
2023-03-29T15:15:37.071Z,37.74
2023-03-29T15:25:45.887Z,37.56
2023-03-29T15:35:51.138Z,37.58
2023-03-29T15:45:52.553Z,37.92
2023-03-29T15:55:54.764Z,37.84
2023-03-29T16:05:56.691Z,37.89
2023-03-29T16:15:58.652Z,37.88
2023-03-29T16:26:00.410Z,38.02
2023-03-29T16:36:02.065Z,38.27
2023-03-29T16:46:06.785Z,38.44
2023-03-29T16:56:08.499Z,38.35
2023-03-29T17:06:10.567Z,38.61
2023-03-29T17:16:11.978Z,38.80
2023-03-29T17:26:14.047Z,38.89
2023-03-29T17:36:15.632Z,39.20
2023-03-29T17:46:18.162Z,39.53
2023-03-29T17:56:20.176Z,39.70
2023-03-29T18:06:21.573Z,39.84
2023-03-29T18:16:23.219Z,39.82
2023-03-29T18:26:24.993Z,40.19
2023-03-29T18:36:26.500Z,40.42
2023-03-29T18:46:31.638Z,40.61
2023-03-29T18:56:33.210Z,40.68
2023-03-29T19:06:35.708Z,40.17
2023-03-29T19:16:37.185Z,40.51
2023-03-29T19:26:38.668Z,40.55
2023-03-29T19:36:40.232Z,40.65
2023-03-29T19:46:41.651Z,40.71
2023-03-29T19:56:44.059Z,40.76
2023-03-29T20:06:45.664Z,40.85
2023-03-29T20:16:49.419Z,40.95
2023-03-29T20:26:51.238Z,40.85
2023-03-29T20:36:55.124Z,41.00
2023-03-29T20:47:03.563Z,40.92
2023-03-29T20:57:05.579Z,41.06
2023-03-29T21:07:08.189Z,41.12
2023-03-29T21:17:10.177Z,41.19
2023-03-29T21:27:11.802Z,41.22
2023-03-29T21:37:15.169Z,41.36
2023-03-29T21:47:16.799Z,41.33
2023-03-29T21:57:18.399Z,41.31
2023-03-29T22:07:22.506Z,41.42
2023-03-29T22:17:26.394Z,41.35
2023-03-29T22:27:27.778Z,41.40
2023-03-29T22:37:29.180Z,41.40
2023-03-29T22:47:30.759Z,41.33
2023-03-29T22:57:33.406Z,41.56
2023-03-29T23:07:37.786Z,41.53
2023-03-29T23:17:39.227Z,41.41
2023-03-29T23:27:41.205Z,41.50
2023-03-29T23:37:42.858Z,41.42
2023-03-29T23:47:44.816Z,41.43
2023-03-29T23:57:46.371Z,41.19
